sensor_id;sensor_type;location;lat;lon;timestamp;pressure;altitude;pressure_sealevel;temperature;humidity
66762;BME280;53672;48.176;16.338;2023-03-03T00:02:56;99297.03;;;0.68;73.98
66762;BME280;53672;48.176;16.338;2023-03-03T00:08:01;99291.78;;;0.55;75.53
66762;BME280;53672;48.176;16.338;2023-03-03T00:13:02;99292.00;;;0.54;75.02
66762;BME280;53672;48.176;16.338;2023-03-03T00:18:12;99293.25;;;0.51;76.22
66762;BME280;53672;48.176;16.338;2023-03-03T00:23:25;99286.56;;;0.42;76.90
66762;BME280;53672;48.176;16.338;2023-03-03T00:28:29;99284.72;;;0.42;75.90
66762;BME280;53672;48.176;16.338;2023-03-03T00:33:32;99281.69;;;0.39;75.55
66762;BME280;53672;48.176;16.338;2023-03-03T00:38:35;99281.13;;;0.30;76.46
66762;BME280;53672;48.176;16.338;2023-03-03T00:43:35;99282.97;;;0.23;77.42
66762;BME280;53672;48.176;16.338;2023-03-03T00:48:41;99281.78;;;0.19;77.37
66762;BME280;53672;48.176;16.338;2023-03-03T00:53:43;99278.31;;;0.19;76.85
66762;BME280;53672;48.176;16.338;2023-03-03T00:58:44;99274.03;;;0.11;77.85
66762;BME280;53672;48.176;16.338;2023-03-03T01:03:45;99267.94;;;0.04;77.29
66762;BME280;53672;48.176;16.338;2023-03-03T01:08:46;99263.50;;;-0.09;78.39
66762;BME280;53672;48.176;16.338;2023-03-03T01:13:48;99255.19;;;-0.12;78.94
66762;BME280;53672;48.176;16.338;2023-03-03T01:18:49;99257.44;;;-0.16;79.38
66762;BME280;53672;48.176;16.338;2023-03-03T01:23:51;99248.47;;;-0.15;79.18
66762;BME280;53672;48.176;16.338;2023-03-03T01:28:52;99249.09;;;-0.26;79.47
66762;BME280;53672;48.176;16.338;2023-03-03T01:33:52;99248.09;;;-0.25;80.08
66762;BME280;53672;48.176;16.338;2023-03-03T01:38:54;99243.81;;;-0.26;80.01
66762;BME280;53672;48.176;16.338;2023-03-03T01:43:55;99236.88;;;-0.27;79.75
66762;BME280;53672;48.176;16.338;2023-03-03T01:48:57;99244.22;;;-0.22;79.54
66762;BME280;53672;48.176;16.338;2023-03-03T01:54:04;99246.44;;;-0.26;79.69
66762;BME280;53672;48.176;16.338;2023-03-03T01:59:10;99239.13;;;-0.30;80.21
66762;BME280;53672;48.176;16.338;2023-03-03T02:04:13;99244.44;;;-0.37;80.01
66762;BME280;53672;48.176;16.338;2023-03-03T02:09:21;99244.00;;;-0.34;80.99
66762;BME280;53672;48.176;16.338;2023-03-03T02:14:27;99244.00;;;-0.21;80.53
66762;BME280;53672;48.176;16.338;2023-03-03T02:19:34;99236.59;;;0.01;80.31
66762;BME280;53672;48.176;16.338;2023-03-03T02:24:42;99235.31;;;0.17;79.19
66762;BME280;53672;48.176;16.338;2023-03-03T02:29:45;99230.75;;;0.30;79.28
66762;BME280;53672;48.176;16.338;2023-03-03T02:34:47;99232.94;;;0.40;78.86
66762;BME280;53672;48.176;16.338;2023-03-03T02:39:47;99225.16;;;0.45;77.11
66762;BME280;53672;48.176;16.338;2023-03-03T02:44:49;99229.44;;;0.46;77.77
66762;BME280;53672;48.176;16.338;2023-03-03T02:49:50;99223.47;;;0.57;76.72
66762;BME280;53672;48.176;16.338;2023-03-03T02:54:50;99219.19;;;0.56;77.08
66762;BME280;53672;48.176;16.338;2023-03-03T02:59:52;99225.69;;;0.60;76.84
66762;BME280;53672;48.176;16.338;2023-03-03T03:04:54;99227.94;;;0.57;77.23
66762;BME280;53672;48.176;16.338;2023-03-03T03:09:54;99228.53;;;0.59;76.75
66762;BME280;53672;48.176;16.338;2023-03-03T03:14:56;99227.47;;;0.66;75.78
66762;BME280;53672;48.176;16.338;2023-03-03T03:19:57;99218.06;;;0.70;77.17
66762;BME280;53672;48.176;16.338;2023-03-03T03:24:57;99213.72;;;0.76;76.92
66762;BME280;53672;48.176;16.338;2023-03-03T03:29:59;99205.97;;;0.81;77.13
66762;BME280;53672;48.176;16.338;2023-03-03T03:35:00;99210.63;;;0.85;76.70
66762;BME280;53672;48.176;16.338;2023-03-03T03:40:00;99202.06;;;0.83;76.83
66762;BME280;53672;48.176;16.338;2023-03-03T03:45:03;99208.22;;;0.77;76.02
66762;BME280;53672;48.176;16.338;2023-03-03T03:50:04;99209.09;;;0.71;76.25
66762;BME280;53672;48.176;16.338;2023-03-03T03:55:05;99201.38;;;0.63;76.84
66762;BME280;53672;48.176;16.338;2023-03-03T04:00:09;99205.09;;;0.56;76.67
66762;BME280;53672;48.176;16.338;2023-03-03T04:05:10;99201.72;;;0.42;77.57
66762;BME280;53672;48.176;16.338;2023-03-03T04:10:11;99206.09;;;0.30;77.38
66762;BME280;53672;48.176;16.338;2023-03-03T04:15:13;99212.47;;;0.16;78.63
66762;BME280;53672;48.176;16.338;2023-03-03T04:20:14;99222.72;;;0.06;79.38
66762;BME280;53672;48.176;16.338;2023-03-03T04:25:16;99226.00;;;-0.06;80.21
66762;BME280;53672;48.176;16.338;2023-03-03T04:30:18;99219.09;;;-0.13;79.71
66762;BME280;53672;48.176;16.338;2023-03-03T04:35:19;99225.88;;;-0.30;81.29
66762;BME280;53672;48.176;16.338;2023-03-03T04:40:19;99221.81;;;-0.33;80.88
66762;BME280;53672;48.176;16.338;2023-03-03T04:45:21;99225.91;;;-0.37;81.12
66762;BME280;53672;48.176;16.338;2023-03-03T04:50:22;99224.09;;;-0.43;81.74
66762;BME280;53672;48.176;16.338;2023-03-03T04:55:22;99222.88;;;-0.54;82.17
66762;BME280;53672;48.176;16.338;2023-03-03T05:00:24;99228.41;;;-0.48;82.23
66762;BME280;53672;48.176;16.338;2023-03-03T05:05:25;99231.84;;;-0.48;81.64
66762;BME280;53672;48.176;16.338;2023-03-03T05:10:25;99232.06;;;-0.56;82.41
66762;BME280;53672;48.176;16.338;2023-03-03T05:15:27;99227.38;;;-0.54;82.31
66762;BME280;53672;48.176;16.338;2023-03-03T05:20:28;99235.50;;;-0.49;82.48
66762;BME280;53672;48.176;16.338;2023-03-03T05:25:28;99228.19;;;-0.54;82.57
66762;BME280;53672;48.176;16.338;2023-03-03T05:30:30;99231.03;;;-0.48;83.31
66762;BME280;53672;48.176;16.338;2023-03-03T05:35:31;99237.94;;;-0.47;82.86
66762;BME280;53672;48.176;16.338;2023-03-03T05:40:32;99254.84;;;-0.42;83.50
66762;BME280;53672;48.176;16.338;2023-03-03T05:45:34;99261.97;;;-0.36;83.33
66762;BME280;53672;48.176;16.338;2023-03-03T05:50:35;99266.59;;;-0.12;82.34
66762;BME280;53672;48.176;16.338;2023-03-03T05:55:36;99271.19;;;0.13;81.50
66762;BME280;53672;48.176;16.338;2023-03-03T06:00:38;99282.09;;;0.36;80.52
66762;BME280;53672;48.176;16.338;2023-03-03T06:05:38;99268.97;;;0.54;79.86
66762;BME280;53672;48.176;16.338;2023-03-03T06:10:39;99282.22;;;0.92;78.55
66762;BME280;53672;48.176;16.338;2023-03-03T06:15:41;99291.13;;;1.29;76.94
66762;BME280;53672;48.176;16.338;2023-03-03T06:20:41;99290.94;;;1.73;74.93
66762;BME280;53672;48.176;16.338;2023-03-03T06:25:42;99299.59;;;2.05;73.86
66762;BME280;53672;48.176;16.338;2023-03-03T06:30:44;99306.53;;;2.42;72.27
66762;BME280;53672;48.176;16.338;2023-03-03T06:35:48;99308.56;;;2.88;70.12
66762;BME280;53672;48.176;16.338;2023-03-03T06:40:49;99306.72;;;3.30;68.18
66762;BME280;53672;48.176;16.338;2023-03-03T06:45:50;99311.41;;;3.81;66.10
66762;BME280;53672;48.176;16.338;2023-03-03T06:50:51;99311.25;;;4.11;64.27
66762;BME280;53672;48.176;16.338;2023-03-03T06:55:51;99318.69;;;4.09;63.70
66762;BME280;53672;48.176;16.338;2023-03-03T07:00:56;99311.75;;;3.96;64.10
66762;BME280;53672;48.176;16.338;2023-03-03T07:05:57;99313.69;;;4.24;63.64
66762;BME280;53672;48.176;16.338;2023-03-03T07:11:01;99313.78;;;4.41;62.76
66762;BME280;53672;48.176;16.338;2023-03-03T07:16:11;99328.28;;;4.73;61.63
66762;BME280;53672;48.176;16.338;2023-03-03T07:21:15;99332.44;;;5.09;59.92
66762;BME280;53672;48.176;16.338;2023-03-03T07:26:18;99338.97;;;5.63;57.68
66762;BME280;53672;48.176;16.338;2023-03-03T07:31:29;99350.28;;;5.98;56.41
66762;BME280;53672;48.176;16.338;2023-03-03T07:36:35;99359.44;;;6.41;55.43
66762;BME280;53672;48.176;16.338;2023-03-03T07:41:36;99369.47;;;6.72;53.64
66762;BME280;53672;48.176;16.338;2023-03-03T07:46:41;99375.44;;;6.79;53.12
66762;BME280;53672;48.176;16.338;2023-03-03T07:51:42;99376.75;;;6.55;53.56
66762;BME280;53672;48.176;16.338;2023-03-03T07:56:43;99379.19;;;6.56;53.22
66762;BME280;53672;48.176;16.338;2023-03-03T08:01:45;99370.25;;;6.68;53.22
66762;BME280;53672;48.176;16.338;2023-03-03T08:06:48;99368.56;;;7.10;51.54
66762;BME280;53672;48.176;16.338;2023-03-03T08:11:51;99363.22;;;7.37;51.12
66762;BME280;53672;48.176;16.338;2023-03-03T08:16:54;99371.00;;;7.97;49.20
66762;BME280;53672;48.176;16.338;2023-03-03T08:21:58;99367.94;;;8.67;47.18
66762;BME280;53672;48.176;16.338;2023-03-03T08:27:00;99352.84;;;9.43;45.34
66762;BME280;53672;48.176;16.338;2023-03-03T08:32:02;99361.72;;;10.40;42.63
66762;BME280;53672;48.176;16.338;2023-03-03T08:37:02;99363.03;;;11.60;40.97
66762;BME280;53672;48.176;16.338;2023-03-03T08:42:03;99372.19;;;14.10;35.51
66762;BME280;53672;48.176;16.338;2023-03-03T08:47:05;99373.44;;;16.52;31.03
66762;BME280;53672;48.176;16.338;2023-03-03T08:52:06;99374.06;;;17.53;28.94
66762;BME280;53672;48.176;16.338;2023-03-03T08:57:06;99375.13;;;19.43;26.48
66762;BME280;53672;48.176;16.338;2023-03-03T09:02:08;99369.72;;;20.42;25.18
66762;BME280;53672;48.176;16.338;2023-03-03T09:07:09;99364.53;;;21.73;22.96
66762;BME280;53672;48.176;16.338;2023-03-03T09:12:15;99378.97;;;21.70;22.70
66762;BME280;53672;48.176;16.338;2023-03-03T09:17:23;99382.31;;;22.63;21.62
66762;BME280;53672;48.176;16.338;2023-03-03T09:22:25;99380.88;;;23.32;20.71
66762;BME280;53672;48.176;16.338;2023-03-03T09:27:27;99387.28;;;22.14;22.36
66762;BME280;53672;48.176;16.338;2023-03-03T09:32:33;99392.09;;;21.13;22.94
66762;BME280;53672;48.176;16.338;2023-03-03T09:37:36;99403.59;;;22.66;21.61
66762;BME280;53672;48.176;16.338;2023-03-03T09:42:52;99405.66;;;24.66;19.20
66762;BME280;53672;48.176;16.338;2023-03-03T09:48:12;99407.19;;;24.21;19.70
66762;BME280;53672;48.176;16.338;2023-03-03T09:53:28;99402.69;;;23.94;19.75
66762;BME280;53672;48.176;16.338;2023-03-03T09:58:50;99402.19;;;23.69;20.47
66762;BME280;53672;48.176;16.338;2023-03-03T10:04:20;99397.50;;;24.92;19.07
66762;BME280;53672;48.176;16.338;2023-03-03T10:15:21;99396.72;;;24.11;19.32
66762;BME280;53672;48.176;16.338;2023-03-03T10:20:49;99384.69;;;24.39;19.23
66762;BME280;53672;48.176;16.338;2023-03-03T10:26:04;99382.88;;;26.30;17.62
66762;BME280;53672;48.176;16.338;2023-03-03T10:31:10;99377.84;;;26.83;17.13
66762;BME280;53672;48.176;16.338;2023-03-03T10:36:26;99369.72;;;27.62;16.77
66762;BME280;53672;48.176;16.338;2023-03-03T10:41:48;99363.72;;;27.46;16.59
66762;BME280;53672;48.176;16.338;2023-03-03T10:47:03;99353.22;;;27.94;16.01
66762;BME280;53672;48.176;16.338;2023-03-03T10:52:27;99328.66;;;27.13;16.45
66762;BME280;53672;48.176;16.338;2023-03-03T10:57:36;99324.00;;;25.96;17.79
66762;BME280;53672;48.176;16.338;2023-03-03T11:02:50;99327.53;;;26.27;16.97
66762;BME280;53672;48.176;16.338;2023-03-03T11:08:00;99335.16;;;26.37;16.97
66762;BME280;53672;48.176;16.338;2023-03-03T11:13:09;99324.56;;;26.46;17.27
66762;BME280;53672;48.176;16.338;2023-03-03T11:18:22;99330.50;;;26.92;17.16
66762;BME280;53672;48.176;16.338;2023-03-03T11:23:51;99332.00;;;27.44;15.83
66762;BME280;53672;48.176;16.338;2023-03-03T11:29:11;99331.88;;;27.19;15.85
66762;BME280;53672;48.176;16.338;2023-03-03T11:34:25;99328.13;;;25.76;17.01
66762;BME280;53672;48.176;16.338;2023-03-03T11:39:29;99314.72;;;25.18;17.67
66762;BME280;53672;48.176;16.338;2023-03-03T11:44:33;99310.28;;;24.61;18.03
66762;BME280;53672;48.176;16.338;2023-03-03T11:49:38;99289.47;;;22.09;20.50
66762;BME280;53672;48.176;16.338;2023-03-03T11:54:45;99284.41;;;20.76;21.86
66762;BME280;53672;48.176;16.338;2023-03-03T11:59:55;99274.25;;;20.40;22.88
66762;BME280;53672;48.176;16.338;2023-03-03T12:05:00;99277.50;;;19.44;24.19
66762;BME280;53672;48.176;16.338;2023-03-03T12:10:17;99268.03;;;19.00;24.38
66762;BME280;53672;48.176;16.338;2023-03-03T12:15:26;99259.00;;;18.79;25.03
66762;BME280;53672;48.176;16.338;2023-03-03T12:20:34;99251.44;;;18.55;25.25
66762;BME280;53672;48.176;16.338;2023-03-03T12:25:41;99245.66;;;18.10;25.78
66762;BME280;53672;48.176;16.338;2023-03-03T12:31:11;99248.00;;;17.91;26.92
66762;BME280;53672;48.176;16.338;2023-03-03T12:36:32;99232.59;;;17.78;26.32
66762;BME280;53672;48.176;16.338;2023-03-03T12:41:40;99234.22;;;17.79;26.45
66762;BME280;53672;48.176;16.338;2023-03-03T12:46:51;99228.69;;;17.15;26.96
66762;BME280;53672;48.176;16.338;2023-03-03T12:52:06;99224.50;;;17.17;26.73
66762;BME280;53672;48.176;16.338;2023-03-03T12:57:20;99223.50;;;17.48;26.55
66762;BME280;53672;48.176;16.338;2023-03-03T13:02:35;99210.25;;;16.95;27.18
66762;BME280;53672;48.176;16.338;2023-03-03T13:07:42;99208.00;;;16.97;26.88
66762;BME280;53672;48.176;16.338;2023-03-03T13:12:50;99213.13;;;17.24;26.88
66762;BME280;53672;48.176;16.338;2023-03-03T13:18:00;99200.16;;;16.61;27.56
66762;BME280;53672;48.176;16.338;2023-03-03T13:23:07;99200.00;;;16.18;28.59
66762;BME280;53672;48.176;16.338;2023-03-03T13:28:18;99189.75;;;16.23;29.45
66762;BME280;53672;48.176;16.338;2023-03-03T13:33:24;99192.53;;;16.32;29.21
66762;BME280;53672;48.176;16.338;2023-03-03T13:38:29;99188.88;;;15.89;30.24
66762;BME280;53672;48.176;16.338;2023-03-03T13:43:37;99182.50;;;15.62;30.67
66762;BME280;53672;48.176;16.338;2023-03-03T13:48:50;99187.44;;;15.38;31.36
66762;BME280;53672;48.176;16.338;2023-03-03T13:54:01;99184.41;;;15.17;32.05
66762;BME280;53672;48.176;16.338;2023-03-03T13:59:14;99183.91;;;14.93;31.82
66762;BME280;53672;48.176;16.338;2023-03-03T14:04:30;99180.47;;;14.79;32.63
66762;BME280;53672;48.176;16.338;2023-03-03T14:09:42;99185.56;;;14.81;32.26
66762;BME280;53672;48.176;16.338;2023-03-03T14:14:51;99177.22;;;14.55;32.37
66762;BME280;53672;48.176;16.338;2023-03-03T14:20:02;99178.53;;;14.44;32.88
66762;BME280;53672;48.176;16.338;2023-03-03T14:25:07;99169.88;;;14.14;32.80
66762;BME280;53672;48.176;16.338;2023-03-03T14:30:25;99168.56;;;13.57;33.02
66762;BME280;53672;48.176;16.338;2023-03-03T14:35:29;99167.34;;;13.50;33.79
66762;BME280;53672;48.176;16.338;2023-03-03T14:40:33;99171.53;;;13.29;34.87
66762;BME280;53672;48.176;16.338;2023-03-03T14:45:36;99169.06;;;13.13;34.91
66762;BME280;53672;48.176;16.338;2023-03-03T14:50:39;99169.13;;;13.08;35.25
66762;BME280;53672;48.176;16.338;2023-03-03T14:55:42;99173.84;;;12.84;35.33
66762;BME280;53672;48.176;16.338;2023-03-03T15:00:44;99168.22;;;12.62;35.77
66762;BME280;53672;48.176;16.338;2023-03-03T15:05:49;99175.53;;;12.43;35.34
66762;BME280;53672;48.176;16.338;2023-03-03T15:10:49;99164.72;;;12.43;43.32
66762;BME280;53672;48.176;16.338;2023-03-03T15:16:00;99163.28;;;12.27;35.74
66762;BME280;53672;48.176;16.338;2023-03-03T15:21:04;99164.38;;;12.07;35.52
66762;BME280;53672;48.176;16.338;2023-03-03T15:26:09;99162.63;;;11.92;35.48
66762;BME280;53672;48.176;16.338;2023-03-03T15:31:23;99160.47;;;11.71;34.71
66762;BME280;53672;48.176;16.338;2023-03-03T15:36:35;99160.22;;;11.38;34.93
66762;BME280;53672;48.176;16.338;2023-03-03T15:41:43;99162.31;;;11.17;33.55
66762;BME280;53672;48.176;16.338;2023-03-03T15:46:59;99156.03;;;10.93;33.84
66762;BME280;53672;48.176;16.338;2023-03-03T15:52:15;99162.13;;;10.75;34.51
66762;BME280;53672;48.176;16.338;2023-03-03T15:57:27;99167.59;;;10.60;33.59
66762;BME280;53672;48.176;16.338;2023-03-03T16:02:42;99163.41;;;10.39;34.09
66762;BME280;53672;48.176;16.338;2023-03-03T16:07:54;99159.47;;;10.11;34.47
66762;BME280;53672;48.176;16.338;2023-03-03T16:13:07;99168.97;;;9.98;34.41
66762;BME280;53672;48.176;16.338;2023-03-03T16:18:18;99177.09;;;9.78;34.69
66762;BME280;53672;48.176;16.338;2023-03-03T16:23:29;99180.94;;;9.62;35.44
66762;BME280;53672;48.176;16.338;2023-03-03T16:28:37;99185.53;;;9.26;36.27
66762;BME280;53672;48.176;16.338;2023-03-03T16:33:47;99187.16;;;9.07;36.85
66762;BME280;53672;48.176;16.338;2023-03-03T16:38:52;99196.56;;;8.94;37.42
66762;BME280;53672;48.176;16.338;2023-03-03T16:44:05;99198.94;;;8.65;37.82
66762;BME280;53672;48.176;16.338;2023-03-03T16:49:20;99208.03;;;8.44;38.38
66762;BME280;53672;48.176;16.338;2023-03-03T16:54:31;99215.50;;;8.32;39.06
66762;BME280;53672;48.176;16.338;2023-03-03T16:59:46;99210.81;;;8.12;39.47
66762;BME280;53672;48.176;16.338;2023-03-03T17:04:53;99220.16;;;8.00;39.65
66762;BME280;53672;48.176;16.338;2023-03-03T17:10:03;99224.94;;;7.88;39.93
66762;BME280;53672;48.176;16.338;2023-03-03T17:15:19;99234.06;;;7.87;40.25
66762;BME280;53672;48.176;16.338;2023-03-03T17:20:36;99239.44;;;7.92;39.63
66762;BME280;53672;48.176;16.338;2023-03-03T17:25:42;99251.75;;;7.88;40.06
66762;BME280;53672;48.176;16.338;2023-03-03T17:30:49;99260.44;;;8.00;40.22
66762;BME280;53672;48.176;16.338;2023-03-03T17:36:06;99260.84;;;7.77;40.55
66762;BME280;53672;48.176;16.338;2023-03-03T17:41:16;99254.88;;;7.70;40.78
66762;BME280;53672;48.176;16.338;2023-03-03T17:46:27;99266.47;;;7.43;41.37
66762;BME280;53672;48.176;16.338;2023-03-03T17:51:55;99271.06;;;7.43;41.60
66762;BME280;53672;48.176;16.338;2023-03-03T17:57:07;99281.47;;;7.39;41.25
66762;BME280;53672;48.176;16.338;2023-03-03T18:02:42;99279.50;;;7.30;41.43
66762;BME280;53672;48.176;16.338;2023-03-03T18:08:02;99283.13;;;7.13;42.00
66762;BME280;53672;48.176;16.338;2023-03-03T18:13:17;99292.13;;;7.02;41.63
66762;BME280;53672;48.176;16.338;2023-03-03T18:18:37;99293.22;;;7.06;42.33
66762;BME280;53672;48.176;16.338;2023-03-03T18:23:43;99299.13;;;6.82;42.63
66762;BME280;53672;48.176;16.338;2023-03-03T18:28:46;99308.25;;;6.59;43.41
66762;BME280;53672;48.176;16.338;2023-03-03T18:33:59;99314.00;;;6.46;44.04
66762;BME280;53672;48.176;16.338;2023-03-03T18:39:04;99314.88;;;6.30;44.65
66762;BME280;53672;48.176;16.338;2023-03-03T18:44:23;99317.81;;;6.11;45.35
66762;BME280;53672;48.176;16.338;2023-03-03T18:49:47;99315.63;;;6.08;46.06
66762;BME280;53672;48.176;16.338;2023-03-03T18:55:21;99314.59;;;5.93;46.85
66762;BME280;53672;48.176;16.338;2023-03-03T19:00:28;99318.94;;;5.82;47.18
66762;BME280;53672;48.176;16.338;2023-03-03T19:05:35;99323.59;;;5.70;48.36
66762;BME280;53672;48.176;16.338;2023-03-03T19:10:50;99327.81;;;5.66;48.90
66762;BME280;53672;48.176;16.338;2023-03-03T19:15:54;99325.78;;;5.56;49.72
66762;BME280;53672;48.176;16.338;2023-03-03T19:20:59;99331.28;;;5.50;49.88
66762;BME280;53672;48.176;16.338;2023-03-03T19:26:39;99323.16;;;5.28;51.22
66762;BME280;53672;48.176;16.338;2023-03-03T19:31:46;99327.50;;;5.18;51.86
66762;BME280;53672;48.176;16.338;2023-03-03T19:37:02;99333.25;;;5.09;52.13
66762;BME280;53672;48.176;16.338;2023-03-03T19:42:13;99334.69;;;5.00;52.92
66762;BME280;53672;48.176;16.338;2023-03-03T19:47:27;99338.59;;;4.81;53.23
66762;BME280;53672;48.176;16.338;2023-03-03T19:52:36;99353.38;;;4.72;54.21
66762;BME280;53672;48.176;16.338;2023-03-03T19:57:47;99355.38;;;4.65;55.50
66762;BME280;53672;48.176;16.338;2023-03-03T20:03:12;99361.63;;;4.59;55.87
66762;BME280;53672;48.176;16.338;2023-03-03T20:08:27;99377.00;;;4.52;56.15
66762;BME280;53672;48.176;16.338;2023-03-03T20:13:42;99372.81;;;4.33;57.72
66762;BME280;53672;48.176;16.338;2023-03-03T20:19:01;99378.75;;;4.35;58.04
66762;BME280;53672;48.176;16.338;2023-03-03T20:24:29;99383.75;;;4.20;58.25
66762;BME280;53672;48.176;16.338;2023-03-03T20:29:51;99382.00;;;4.14;59.36
66762;BME280;53672;48.176;16.338;2023-03-03T20:35:06;99382.22;;;4.12;59.55
66762;BME280;53672;48.176;16.338;2023-03-03T20:40:20;99387.22;;;4.08;60.58
66762;BME280;53672;48.176;16.338;2023-03-03T20:45:38;99392.09;;;4.12;59.36
66762;BME280;53672;48.176;16.338;2023-03-03T20:50:52;99395.59;;;4.00;60.15
66762;BME280;53672;48.176;16.338;2023-03-03T20:56:04;99397.28;;;3.95;60.34
66762;BME280;53672;48.176;16.338;2023-03-03T21:01:15;99396.50;;;3.83;60.26
66762;BME280;53672;48.176;16.338;2023-03-03T21:06:20;99397.63;;;3.75;61.15
66762;BME280;53672;48.176;16.338;2023-03-03T21:11:39;99402.38;;;3.73;61.76
66762;BME280;53672;48.176;16.338;2023-03-03T21:16:45;99403.88;;;3.69;62.39
66762;BME280;53672;48.176;16.338;2023-03-03T21:21:47;99401.53;;;3.61;63.31
66762;BME280;53672;48.176;16.338;2023-03-03T21:26:51;99405.69;;;3.57;62.90
66762;BME280;53672;48.176;16.338;2023-03-03T21:31:55;99406.41;;;3.64;62.20
66762;BME280;53672;48.176;16.338;2023-03-03T21:36:56;99406.94;;;3.43;63.34
66762;BME280;53672;48.176;16.338;2023-03-03T21:42:00;99405.31;;;3.42;63.52
66762;BME280;53672;48.176;16.338;2023-03-03T21:47:03;99412.22;;;3.31;65.35
66762;BME280;53672;48.176;16.338;2023-03-03T21:52:04;99410.25;;;3.27;65.31
66762;BME280;53672;48.176;16.338;2023-03-03T21:57:04;99424.19;;;3.11;66.07
66762;BME280;53672;48.176;16.338;2023-03-03T22:02:07;99425.81;;;3.12;66.68
66762;BME280;53672;48.176;16.338;2023-03-03T22:07:08;99426.16;;;3.15;66.78
66762;BME280;53672;48.176;16.338;2023-03-03T22:12:09;99431.00;;;3.06;68.11
66762;BME280;53672;48.176;16.338;2023-03-03T22:17:11;99435.13;;;3.02;67.99
66762;BME280;53672;48.176;16.338;2023-03-03T22:22:11;99436.97;;;3.02;68.27
66762;BME280;53672;48.176;16.338;2023-03-03T22:27:12;99438.97;;;3.06;67.34
66762;BME280;53672;48.176;16.338;2023-03-03T22:32:14;99432.28;;;2.86;68.37
66762;BME280;53672;48.176;16.338;2023-03-03T22:37:14;99429.91;;;2.78;68.58
66762;BME280;53672;48.176;16.338;2023-03-03T22:42:15;99440.03;;;2.69;69.71
66762;BME280;53672;48.176;16.338;2023-03-03T22:47:16;99430.44;;;2.68;69.74
66762;BME280;53672;48.176;16.338;2023-03-03T22:52:17;99430.28;;;2.63;70.40
66762;BME280;53672;48.176;16.338;2023-03-03T22:57:18;99437.75;;;2.54;71.03
66762;BME280;53672;48.176;16.338;2023-03-03T23:02:19;99430.09;;;2.40;71.01
66762;BME280;53672;48.176;16.338;2023-03-03T23:07:20;99430.25;;;2.27;71.54
66762;BME280;53672;48.176;16.338;2023-03-03T23:12:20;99439.69;;;2.23;71.38
66762;BME280;53672;48.176;16.338;2023-03-03T23:17:22;99437.00;;;2.04;72.46
66762;BME280;53672;48.176;16.338;2023-03-03T23:22:23;99436.19;;;2.04;71.81
66762;BME280;53672;48.176;16.338;2023-03-03T23:27:23;99435.09;;;1.87;73.79
66762;BME280;53672;48.176;16.338;2023-03-03T23:32:26;99438.56;;;1.87;73.51
66762;BME280;53672;48.176;16.338;2023-03-03T23:37:26;99424.34;;;1.75;74.16
66762;BME280;53672;48.176;16.338;2023-03-03T23:42:27;99425.22;;;1.69;74.68
66762;BME280;53672;48.176;16.338;2023-03-03T23:47:29;99425.53;;;1.54;75.73
66762;BME280;53672;48.176;16.338;2023-03-03T23:52:29;99415.84;;;1.35;77.04
66762;BME280;53672;48.176;16.338;2023-03-03T23:57:30;99411.59;;;1.28;77.88
